Time;durP1;ratioP1;P1;durP2;ratioP2;P2;SDS_P1;SDS_P2;PMS_P1;PMS_P2;Temp;Humidity;BMP_temperature;BMP_pressure;BME280_temperature;BME280_humidity;BME280_pressure;Samples;Min_cycle;Max_cycle;Signal;HPM_P1;HPM_P2
2021/06/23 00:01:06;;;;;;;10.48;2.60;;;;;;;16.06;86.64;100927.16;5244033;28;20103;-76
2021/06/23 00:03:36;;;;;;;14.75;3.22;;;;;;;15.95;86.50;100928.66;5248832;28;20024;-76
2021/06/23 00:06:07;;;;;;;10.00;2.95;;;;;;;15.84;87.20;100937.09;5254006;28;20023;-76
2021/06/23 00:08:37;;;;;;;13.68;3.03;;;;;;;15.82;87.01;100933.69;5247882;28;20182;-76
2021/06/23 00:11:08;;;;;;;10.20;2.40;;;;;;;15.90;86.38;100947.31;5251831;28;20103;-76
2021/06/23 00:13:38;;;;;;;10.18;2.63;;;;;;;16.05;85.25;100936.00;5253214;28;20548;-76
2021/06/23 00:16:09;;;;;;;14.20;2.70;;;;;;;16.03;85.33;100932.59;5253821;28;20020;-76
2021/06/23 00:18:40;;;;;;;9.45;2.40;;;;;;;16.29;84.70;100934.72;5253485;28;20510;-76
2021/06/23 00:21:10;;;;;;;11.20;2.72;;;;;;;16.11;84.86;100934.81;5254193;28;20063;-76
2021/06/23 00:23:40;;;;;;;10.15;2.50;;;;;;;16.14;84.75;100932.03;5253815;28;20032;-76
2021/06/23 00:26:11;;;;;;;9.30;2.30;;;;;;;15.92;85.83;100934.94;5253870;28;20549;-76
2021/06/23 00:28:41;;;;;;;10.73;2.58;;;;;;;15.83;86.29;100937.16;5254509;28;20024;-76
2021/06/23 00:31:12;;;;;;;12.57;2.72;;;;;;;16.15;85.40;100937.22;5252824;28;20032;-76
2021/06/23 00:33:43;;;;;;;9.98;2.45;;;;;;;16.10;85.61;100933.13;5254484;28;20695;-76
2021/06/23 00:36:13;;;;;;;11.23;2.58;;;;;;;16.02;85.55;100933.53;5246145;28;20108;-76
2021/06/23 00:38:43;;;;;;;15.93;2.78;;;;;;;15.71;86.11;100936.00;5250346;28;20044;-76
2021/06/23 00:41:17;;;;;;;10.50;2.60;;;;;;;15.81;86.20;100942.53;5252570;28;20028;-76
2021/06/23 00:43:48;;;;;;;9.80;2.53;;;;;;;16.01;86.26;100945.00;5249305;28;20320;-76
2021/06/23 00:46:19;;;;;;;9.32;2.50;;;;;;;16.15;86.12;100947.78;5249780;28;20023;-76
2021/06/23 00:48:56;;;;;;;9.38;2.60;;;;;;;16.13;84.96;100960.19;5251298;28;20494;-76
2021/06/23 00:51:26;;;;;;;9.63;2.58;;;;;;;16.15;85.55;100978.56;5234952;28;20055;-76
2021/06/23 00:53:57;;;;;;;9.68;2.28;;;;;;;16.18;84.54;100981.91;5251006;28;20051;-76
2021/06/23 00:56:35;;;;;;;10.15;2.10;;;;;;;16.18;85.10;100989.81;5254658;28;20035;-76
2021/06/23 00:59:08;;;;;;;10.13;2.28;;;;;;;16.15;84.07;100989.97;5249809;28;20023;-76
2021/06/23 01:01:41;;;;;;;12.00;2.28;;;;;;;16.13;84.03;100991.84;5254541;28;20103;-76
2021/06/23 01:04:14;;;;;;;13.80;2.53;;;;;;;15.93;84.74;100994.66;5253735;28;20027;-76
2021/06/23 01:06:44;;;;;;;10.63;2.15;;;;;;;15.93;84.84;100999.06;5253109;28;20059;-76
2021/06/23 01:09:14;;;;;;;10.13;2.55;;;;;;;15.89;84.68;100993.06;5253049;28;20039;-76
2021/06/23 01:12:12;;;;;;;11.23;2.40;;;;;;;15.98;83.59;100997.03;5253349;28;20081;-76
2021/06/23 01:14:43;;;;;;;9.82;2.22;;;;;;;16.11;84.21;100998.97;5245882;28;20041;-76
2021/06/23 01:17:13;;;;;;;11.00;2.50;;;;;;;16.18;83.63;101000.38;5250168;28;20021;-76
2021/06/23 01:19:45;;;;;;;11.18;2.35;;;;;;;16.18;83.90;101005.63;5249647;28;20043;-76
2021/06/23 01:22:18;;;;;;;9.35;2.40;;;;;;;16.15;83.53;101008.44;5253191;28;20023;-76
2021/06/23 01:24:48;;;;;;;8.35;2.30;;;;;;;16.16;83.07;101019.81;5254077;28;20020;-75
2021/06/23 01:27:18;;;;;;;11.05;2.30;;;;;;;16.05;82.56;101024.81;5253114;28;20047;-76
2021/06/23 01:29:49;;;;;;;10.93;2.28;;;;;;;16.04;83.68;101028.38;5252314;28;20051;-76
2021/06/23 01:32:19;;;;;;;7.87;1.90;;;;;;;16.06;83.69;101026.50;5253517;28;20032;-76
2021/06/23 01:34:49;;;;;;;10.50;2.17;;;;;;;16.13;82.85;101028.75;5252060;28;20278;-76
2021/06/23 01:37:20;;;;;;;11.38;2.40;;;;;;;16.16;82.31;101017.19;5253709;28;20028;-76
2021/06/23 01:39:50;;;;;;;8.82;1.98;;;;;;;16.08;82.74;101019.38;5251727;28;20033;-76
2021/06/23 01:42:20;;;;;;;9.48;2.05;;;;;;;16.20;82.27;101021.41;5253932;28;20103;-77
2021/06/23 01:44:51;;;;;;;11.75;2.28;;;;;;;16.22;82.31;101012.44;5251873;28;20032;-77
2021/06/23 01:47:21;;;;;;;13.65;2.50;;;;;;;16.12;82.19;101005.97;5247290;28;20029;-75
2021/06/23 01:49:52;;;;;;;11.20;2.45;;;;;;;16.12;83.13;101005.09;5245125;28;20016;-76
2021/06/23 01:52:22;;;;;;;11.93;2.33;;;;;;;16.10;83.46;101002.56;5251603;28;20098;-76
2021/06/23 01:54:53;;;;;;;9.77;1.95;;;;;;;15.93;83.68;100999.91;5252211;28;20024;-76
2021/06/23 01:57:25;;;;;;;14.65;2.60;;;;;;;15.79;84.72;100999.75;5254073;28;20107;-76
2021/06/23 01:59:56;;;;;;;14.73;2.55;;;;;;;15.94;83.84;100999.00;5253778;28;20073;-75
2021/06/23 02:02:30;;;;;;;11.25;2.60;;;;;;;15.91;83.35;101001.75;5250555;28;20486;-76
2021/06/23 02:05:07;;;;;;;10.75;2.42;;;;;;;15.83;83.58;100998.66;5244758;28;20581;-76
2021/06/23 02:07:43;;;;;;;11.05;2.35;;;;;;;15.71;82.81;100999.28;5252627;28;20028;-76
2021/06/23 02:10:35;;;;;;;13.65;2.45;;;;;;;15.80;83.12;100988.28;5252354;28;20063;-76
2021/06/23 02:13:27;;;;;;;13.25;2.63;;;;;;;15.67;82.92;100995.09;5248154;28;20024;-75
2021/06/23 02:16:05;;;;;;;9.90;2.53;;;;;;;15.69;83.17;100990.59;5250906;28;20024;-76
2021/06/23 02:18:37;;;;;;;10.68;2.10;;;;;;;15.78;82.73;100995.41;5248184;28;20542;-76
2021/06/23 02:21:08;;;;;;;11.75;2.40;;;;;;;15.85;82.00;101001.25;5251821;28;20031;-76
2021/06/23 02:23:42;;;;;;;11.43;2.33;;;;;;;15.80;82.29;101003.22;5251801;28;20641;-76
2021/06/23 02:26:13;;;;;;;10.98;2.40;;;;;;;15.86;83.56;100998.50;5252581;28;20036;-76
2021/06/23 02:28:44;;;;;;;8.32;2.28;;;;;;;15.88;82.11;101001.91;5254320;28;20035;-76
2021/06/23 02:31:15;;;;;;;9.70;2.50;;;;;;;15.82;83.47;101002.22;5255836;28;20024;-75
2021/06/23 02:33:46;;;;;;;8.38;2.13;;;;;;;15.91;83.56;101001.75;5254925;28;20116;-76
2021/06/23 02:36:16;;;;;;;12.00;2.40;;;;;;;15.78;82.95;101003.31;5244957;28;20040;-76
2021/06/23 02:38:47;;;;;;;14.25;2.40;;;;;;;15.72;83.21;101010.69;5251013;28;20020;-76
2021/06/23 02:41:19;;;;;;;11.93;2.33;;;;;;;15.64;83.56;101007.56;5252122;28;20040;-76
2021/06/23 02:43:49;;;;;;;6.72;2.25;;;;;;;15.63;84.29;101013.75;5256194;28;20038;-76
2021/06/23 02:46:20;;;;;;;10.23;2.40;;;;;;;15.64;84.51;101028.63;5255148;28;20020;-77
2021/06/23 02:48:53;;;;;;;9.95;2.60;;;;;;;15.73;84.24;101033.47;5256832;28;20452;-75
2021/06/23 02:51:25;;;;;;;8.15;2.15;;;;;;;15.69;85.85;101027.47;5254588;28;20093;-75
2021/06/23 02:53:56;;;;;;;9.52;2.50;;;;;;;15.73;84.16;101029.03;5257388;28;20622;-76
2021/06/23 02:56:27;;;;;;;9.27;2.33;;;;;;;15.68;82.79;101031.06;5253114;28;20040;-76
2021/06/23 02:58:59;;;;;;;10.48;2.60;;;;;;;15.63;83.88;101027.81;5255968;28;20024;-76
2021/06/23 03:01:30;;;;;;;10.88;2.40;;;;;;;15.66;83.28;101022.38;5256483;28;20563;-76
2021/06/23 03:04:00;;;;;;;11.77;2.30;;;;;;;15.58;83.50;101021.03;5249806;28;20028;-75
2021/06/23 03:06:31;;;;;;;11.20;2.40;;;;;;;15.47;83.64;101013.66;5252133;28;20020;-76
2021/06/23 03:09:02;;;;;;;13.93;2.83;;;;;;;15.35;84.48;101016.88;5244450;28;20017;-75
2021/06/23 03:11:37;;;;;;;13.43;2.50;;;;;;;15.44;83.95;101027.00;5249889;28;20038;-75
2021/06/23 03:14:08;;;;;;;17.02;2.50;;;;;;;15.29;85.10;101025.09;5254319;28;20389;-76
2021/06/23 03:16:39;;;;;;;14.07;3.30;;;;;;;15.32;84.54;101030.19;5256254;28;20040;-76
2021/06/23 03:19:11;;;;;;;10.77;2.53;;;;;;;15.32;83.82;101045.16;5254393;28;20028;-75
2021/06/23 03:21:41;;;;;;;11.15;2.50;;;;;;;15.30;84.55;101050.50;5255861;28;20034;-76
2021/06/23 03:24:11;;;;;;;15.23;2.85;;;;;;;15.43;83.18;101053.38;5242768;28;20020;-76
2021/06/23 03:26:42;;;;;;;12.27;2.55;;;;;;;15.37;83.57;101061.59;5245619;28;20029;-76
2021/06/23 03:29:27;;;;;;;10.35;2.47;;;;;;;15.44;83.19;101052.47;5252797;28;20486;-76
2021/06/23 03:31:58;;;;;;;11.68;2.40;;;;;;;15.54;82.68;101059.84;5256540;28;20020;-76
2021/06/23 03:34:28;;;;;;;14.50;2.95;;;;;;;15.66;82.27;101061.91;5251505;28;20038;-76
2021/06/23 03:36:59;;;;;;;11.88;2.47;;;;;;;15.55;82.82;101058.91;5254404;28;20016;-76
2021/06/23 03:39:30;;;;;;;10.70;2.53;;;;;;;15.76;83.12;101057.03;5253338;28;20028;-75
2021/06/23 03:42:00;;;;;;;13.48;2.65;;;;;;;15.56;82.52;101062.41;5248715;28;20482;-76
2021/06/23 03:44:30;;;;;;;14.80;3.08;;;;;;;15.60;83.08;101061.34;5256436;28;20028;-76
2021/06/23 03:47:04;;;;;;;10.50;2.47;;;;;;;15.51;84.55;101053.91;5252946;28;20363;-76
2021/06/23 03:49:34;;;;;;;10.85;2.35;;;;;;;15.68;84.35;101048.66;5255866;28;20803;-76
2021/06/23 03:52:05;;;;;;;11.20;2.60;;;;;;;15.68;84.63;101049.50;5251764;28;20016;-76
2021/06/23 03:54:35;;;;;;;10.15;2.45;;;;;;;15.61;84.81;101058.66;5253120;28;20025;-76
2021/06/23 03:57:06;;;;;;;14.65;2.60;;;;;;;15.59;84.62;101059.63;5253927;28;20032;-76
2021/06/23 03:59:36;;;;;;;10.90;2.67;;;;;;;15.65;83.86;101061.97;5255461;28;20449;-76
2021/06/23 04:02:06;;;;;;;9.85;2.42;;;;;;;15.55;84.03;101074.72;5252199;28;20027;-76
2021/06/23 04:04:37;;;;;;;10.55;2.35;;;;;;;15.53;83.61;101081.03;5255648;28;20024;-76
2021/06/23 04:07:07;;;;;;;13.10;2.83;;;;;;;15.39;84.19;101081.66;5251667;28;20442;-76
2021/06/23 04:09:38;;;;;;;11.73;2.53;;;;;;;15.46;82.62;101072.53;5243048;28;20013;-76
2021/06/23 04:12:10;;;;;;;12.48;2.55;;;;;;;15.46;81.62;101082.22;5253266;28;20024;-76
2021/06/23 04:14:40;;;;;;;9.32;2.15;;;;;;;15.54;82.23;101090.63;5254216;28;20020;-76
2021/06/23 04:17:11;;;;;;;14.23;2.50;;;;;;;15.55;81.52;101090.53;5251672;28;20444;-76
2021/06/23 04:19:41;;;;;;;9.20;2.78;;;;;;;15.85;81.01;101081.16;5245673;28;20535;-76
2021/06/23 04:22:11;;;;;;;11.45;2.50;;;;;;;15.98;81.86;101071.72;5253536;28;20032;-76
2021/06/23 04:24:42;;;;;;;10.38;2.10;;;;;;;16.08;82.21;101078.22;5249327;28;20073;-76
2021/06/23 04:27:12;;;;;;;10.45;2.45;;;;;;;16.02;80.83;101083.81;5243457;28;20060;-77
2021/06/23 04:29:42;;;;;;;11.50;2.40;;;;;;;15.99;82.07;101083.97;5252540;28;20095;-76
2021/06/23 04:32:13;;;;;;;13.23;2.63;;;;;;;15.61;83.95;101092.91;5253826;28;20083;-76
2021/06/23 04:34:43;;;;;;;11.85;2.67;;;;;;;15.82;82.93;101086.59;5242018;28;20122;-76
2021/06/23 04:37:13;;;;;;;14.77;2.70;;;;;;;15.61;82.25;101098.16;5249504;28;20063;-76
2021/06/23 04:39:44;;;;;;;19.27;2.75;;;;;;;15.17;83.75;101087.97;5251458;28;20082;-76
2021/06/23 04:42:14;;;;;;;13.43;2.80;;;;;;;15.44;84.28;101095.47;5250347;28;20020;-76
2021/06/23 04:44:44;;;;;;;10.90;2.45;;;;;;;15.70;81.66;101087.16;5250202;28;20112;-76
2021/06/23 04:47:15;;;;;;;13.10;2.47;;;;;;;15.88;82.19;101095.97;5245996;28;20024;-76
2021/06/23 04:49:45;;;;;;;12.60;2.20;;;;;;;15.83;82.64;101088.28;5245498;28;20639;-78
2021/06/23 04:52:15;;;;;;;12.07;2.47;;;;;;;16.01;81.69;101087.38;5247304;28;20231;-78
2021/06/23 04:54:46;;;;;;;14.70;2.40;;;;;;;16.35;80.87;101086.59;5245615;28;20505;-77
2021/06/23 04:57:16;;;;;;;10.63;2.58;;;;;;;16.29;80.86;101082.44;5250186;28;20059;-78
2021/06/23 04:59:47;;;;;;;14.60;2.75;;;;;;;16.25;80.90;101090.59;5258935;28;20024;-77
2021/06/23 05:02:18;;;;;;;16.98;2.90;;;;;;;16.17;80.52;101098.00;5258630;28;20077;-77
2021/06/23 05:04:49;;;;;;;11.88;2.40;;;;;;;16.04;80.95;101103.06;5250545;28;20020;-77
2021/06/23 05:07:19;;;;;;;10.02;2.33;;;;;;;16.03;81.27;101103.16;5253106;28;20051;-76
2021/06/23 05:09:51;;;;;;;9.30;2.08;;;;;;;16.33;80.31;101102.47;5258246;28;20052;-76
2021/06/23 05:12:26;;;;;;;12.48;2.42;;;;;;;16.28;82.59;101108.88;5236578;28;20064;-78
2021/06/23 05:14:57;;;;;;;11.57;2.50;;;;;;;16.12;82.26;101116.72;5236114;28;20020;-79
2021/06/23 05:17:27;;;;;;;11.05;2.60;;;;;;;16.15;82.54;101106.03;5235814;28;20025;-76
2021/06/23 05:19:59;;;;;;;14.43;2.38;;;;;;;16.00;82.40;101106.78;5239465;28;20113;-78
2021/06/23 05:22:30;;;;;;;10.00;2.50;;;;;;;15.87;82.96;101095.13;5236407;28;20598;-79
2021/06/23 05:25:04;;;;;;;10.75;2.78;;;;;;;16.06;82.29;101098.56;5226607;28;20045;-79
2021/06/23 05:27:34;;;;;;;14.65;2.80;;;;;;;16.40;82.69;101098.59;5225304;28;20029;-76
2021/06/23 05:30:05;;;;;;;11.90;2.85;;;;;;;16.02;83.94;101098.81;5233471;28;20054;-76
2021/06/23 05:32:36;;;;;;;13.80;2.72;;;;;;;16.37;82.38;101096.13;5229836;28;20025;-77
2021/06/23 05:35:07;;;;;;;12.15;2.67;;;;;;;16.64;80.76;101083.28;5230451;28;20025;-78
2021/06/23 05:37:37;;;;;;;13.05;2.65;;;;;;;16.54;80.24;101082.91;5225952;28;20065;-77
2021/06/23 05:40:08;;;;;;;11.65;2.20;;;;;;;16.36;80.73;101088.31;5235060;28;20025;-77
2021/06/23 05:42:39;;;;;;;14.07;2.72;;;;;;;16.57;80.84;101088.03;5236724;28;20478;-77
2021/06/23 05:45:10;;;;;;;16.00;2.60;;;;;;;16.65;80.90;101085.88;5235363;28;20030;-77
2021/06/23 05:47:40;;;;;;;15.35;2.58;;;;;;;16.52;81.26;101087.44;5236678;28;20420;-80
2021/06/23 05:50:11;;;;;;;15.43;2.58;;;;;;;16.50;80.24;101091.94;5236645;28;20013;-80
2021/06/23 05:52:46;;;;;;;10.98;2.40;;;;;;;16.30;80.99;101099.97;5238724;28;20060;-80
2021/06/23 05:55:21;;;;;;;10.77;2.40;;;;;;;15.90;83.06;101102.88;5235838;28;20118;-79
2021/06/23 05:57:52;;;;;;;12.05;2.70;;;;;;;15.58;84.92;101113.25;5237775;28;20021;-79
2021/06/23 06:00:24;;;;;;;14.57;2.65;;;;;;;15.34;85.76;101120.53;5234630;28;20415;-77
2021/06/23 06:02:54;;;;;;;14.88;2.70;;;;;;;15.36;86.70;101128.38;5233358;28;20108;-78
2021/06/23 06:05:25;;;;;;;13.98;2.70;;;;;;;15.60;86.54;101122.81;5239033;28;20063;-78
2021/06/23 06:07:55;;;;;;;13.98;2.63;;;;;;;15.95;84.40;101119.34;5240151;28;20023;-78
2021/06/23 06:10:27;;;;;;;12.70;2.60;;;;;;;15.87;83.20;101125.91;5236956;28;20074;-79
2021/06/23 06:12:57;;;;;;;11.65;2.40;;;;;;;16.08;83.07;101116.94;5237262;28;20513;-79
2021/06/23 06:15:30;;;;;;;15.93;2.83;;;;;;;16.10;83.31;101123.88;5241665;28;20040;-79
2021/06/23 06:18:03;;;;;;;13.13;2.67;;;;;;;16.18;82.90;101119.06;5235553;28;20036;-79
2021/06/23 06:20:34;;;;;;;9.73;2.65;;;;;;;16.30;81.93;101110.53;5240861;28;20033;-79
2021/06/23 06:23:05;;;;;;;9.85;2.20;;;;;;;16.50;81.09;101106.91;5238766;28;20182;-80
2021/06/23 06:25:35;;;;;;;12.93;2.47;;;;;;;16.46;81.61;101108.84;5233612;28;20391;-80
2021/06/23 06:28:06;;;;;;;11.93;2.45;;;;;;;16.46;81.90;101111.50;5241534;28;20394;-79
2021/06/23 06:30:36;;;;;;;11.43;2.40;;;;;;;16.75;81.38;101108.19;5241091;28;20545;-79
2021/06/23 06:33:08;;;;;;;12.90;2.58;;;;;;;16.76;81.59;101111.69;5240239;28;20025;-79
2021/06/23 06:35:38;;;;;;;14.00;2.75;;;;;;;16.55;82.30;101115.44;5241737;28;20090;-80
2021/06/23 06:38:08;;;;;;;12.85;2.55;;;;;;;16.61;81.60;101116.00;5239632;28;20024;-79
2021/06/23 06:40:39;;;;;;;12.38;2.70;;;;;;;16.50;81.53;101120.09;5242487;28;20108;-78
2021/06/23 06:43:11;;;;;;;11.70;2.60;;;;;;;16.55;80.75;101116.28;5237905;28;20037;-77
2021/06/23 06:45:41;;;;;;;11.27;2.45;;;;;;;16.40;80.98;101132.91;5238913;28;20032;-78
2021/06/23 06:48:12;;;;;;;11.57;2.45;;;;;;;16.62;82.06;101138.81;5240754;28;20021;-78
2021/06/23 06:50:43;;;;;;;12.65;2.53;;;;;;;16.91;80.18;101132.84;5239927;28;20021;-78
2021/06/23 06:53:13;;;;;;;16.00;2.55;;;;;;;16.86;79.40;101137.53;5242003;28;20498;-78
2021/06/23 06:55:43;;;;;;;12.18;2.28;;;;;;;16.70;79.13;101146.34;5232880;28;20029;-77
2021/06/23 06:58:15;;;;;;;13.10;2.30;;;;;;;16.69;79.60;101150.75;5233557;28;20029;-77
2021/06/23 07:00:45;;;;;;;16.08;2.88;;;;;;;16.03;80.90;101161.16;5234983;28;20032;-77
2021/06/23 07:03:15;;;;;;;11.02;2.28;;;;;;;16.63;78.75;101166.03;5234868;28;20027;-77
2021/06/23 07:05:45;;;;;;;14.07;2.78;;;;;;;16.68;79.19;101159.59;5234488;28;20028;-77
2021/06/23 07:08:16;;;;;;;14.18;2.95;;;;;;;16.61;79.58;101152.94;5231006;28;20032;-77
2021/06/23 07:10:46;;;;;;;14.75;2.58;;;;;;;16.77;80.95;101153.88;5233712;28;20456;-77
2021/06/23 07:13:16;;;;;;;12.20;2.50;;;;;;;16.77;80.20;101148.59;5234195;28;20102;-77
2021/06/23 07:15:47;;;;;;;13.63;2.55;;;;;;;17.04;79.53;101150.63;5234340;28;20097;-77
2021/06/23 07:18:17;;;;;;;14.90;2.63;;;;;;;17.27;77.30;101146.75;5234535;28;20035;-77
2021/06/23 07:20:47;;;;;;;11.07;2.30;;;;;;;17.58;76.00;101136.25;5233174;28;20418;-77
2021/06/23 07:23:17;;;;;;;15.15;2.40;;;;;;;17.50;76.25;101141.13;5234773;28;20027;-77
2021/06/23 07:25:48;;;;;;;13.85;2.50;;;;;;;17.65;76.23;101138.47;5234609;28;20048;-77
2021/06/23 07:28:26;;;;;;;16.33;2.47;;;;;;;16.98;77.66;101161.50;5228147;28;20025;-77
2021/06/23 07:30:56;;;;;;;13.43;2.10;;;;;;;16.98;77.09;101158.88;5232863;28;20092;-77
2021/06/23 07:33:27;;;;;;;13.30;2.65;;;;;;;17.07;77.21;101163.69;5230197;28;20029;-77
2021/06/23 07:38:46;;;;;;;13.63;2.70;;;;;;;17.08;77.86;101159.22;5232242;28;20123;-77
2021/06/23 07:41:16;;;;;;;11.68;2.58;;;;;;;17.52;76.35;101147.16;5233664;28;20348;-77
2021/06/23 07:43:46;;;;;;;10.75;2.40;;;;;;;17.69;75.92;101140.00;5234441;28;20035;-77
2021/06/23 07:46:17;;;;;;;13.35;2.33;;;;;;;17.46;78.00;101156.28;5233830;28;20051;-77
2021/06/23 07:48:50;;;;;;;9.80;2.33;;;;;;;17.44;77.21;101159.94;5232839;28;20059;-77
2021/06/23 07:51:28;;;;;;;12.73;2.60;;;;;;;17.18;79.61;101157.81;5224137;28;20029;-77
2021/06/23 08:10:09;;;;;;;15.00;2.65;;;;;;;17.06;79.81;101159.34;5221756;28;20036;-77
2021/06/23 08:13:01;;;;;;;10.50;2.67;;;;;;;17.09;78.85;101150.38;5230723;28;20490;-77
2021/06/23 08:15:33;;;;;;;9.90;2.50;;;;;;;17.45;77.00;101156.38;5227496;28;20155;-77
2021/06/23 08:18:04;;;;;;;16.55;2.50;;;;;;;17.54;78.34;101154.09;5234639;28;20397;-77
2021/06/23 08:20:35;;;;;;;13.23;2.72;;;;;;;18.09;76.66;101155.34;5230327;28;20029;-77
2021/06/23 08:23:06;;;;;;;15.93;2.80;;;;;;;18.04;75.77;101149.44;5233956;28;20029;-76
2021/06/23 08:25:36;;;;;;;11.35;2.28;;;;;;;18.48;74.59;101144.28;5230849;28;20052;-77
2021/06/23 08:28:07;;;;;;;12.98;2.50;;;;;;;18.38;74.89;101143.13;5232071;28;20302;-77
2021/06/23 08:30:37;;;;;;;11.98;2.70;;;;;;;18.47;74.19;101142.56;5233923;28;20024;-77
2021/06/23 08:33:07;;;;;;;15.02;2.60;;;;;;;18.57;72.69;101143.72;5230879;28;20025;-77
2021/06/23 08:35:38;;;;;;;15.10;2.80;;;;;;;18.34;73.40;101144.25;5233787;28;20437;-77
2021/06/23 08:38:09;;;;;;;9.93;2.70;;;;;;;18.76;72.79;101139.91;5230330;28;20055;-76
2021/06/23 08:40:40;;;;;;;12.43;3.00;;;;;;;18.71;74.78;101146.41;5223261;28;20020;-77
2021/06/23 08:43:17;;;;;;;15.02;2.80;;;;;;;18.41;73.88;101145.56;5232158;28;20024;-77
2021/06/23 08:45:48;;;;;;;12.23;2.50;;;;;;;18.77;71.87;101142.44;5231599;28;20033;-76
2021/06/23 08:48:19;;;;;;;16.75;3.13;;;;;;;18.20;74.49;101145.00;5232364;28;20489;-77
2021/06/23 08:50:49;;;;;;;11.98;2.95;;;;;;;18.38;77.06;101148.41;5233256;28;20120;-77
2021/06/23 08:53:20;;;;;;;11.05;2.70;;;;;;;19.05;74.94;101144.28;5230833;28;20490;-77
2021/06/23 08:55:50;;;;;;;13.15;2.92;;;;;;;18.77;77.54;101147.75;5231650;28;20028;-77
2021/06/23 08:58:20;;;;;;;16.98;2.95;;;;;;;18.62;75.58;101153.13;5232238;28;20021;-77
2021/06/23 09:00:52;;;;;;;22.50;3.30;;;;;;;18.45;76.33;101153.25;5232700;28;20075;-77
2021/06/23 09:03:23;;;;;;;11.55;2.90;;;;;;;17.80;75.86;101152.66;5232569;28;20692;-77
2021/06/23 09:05:55;;;;;;;11.75;2.90;;;;;;;18.14;76.00;101150.66;5231886;28;20116;-77
2021/06/23 09:08:32;;;;;;;14.02;3.03;;;;;;;18.58;75.52;101145.44;5231401;28;20039;-77
2021/06/23 09:11:22;;;;;;;12.90;2.83;;;;;;;18.61;75.03;101151.41;5221150;28;20119;-77
2021/06/23 09:13:53;;;;;;;17.45;3.00;;;;;;;19.13;72.92;101158.75;5239063;28;20079;-78
2021/06/23 09:16:23;;;;;;;16.10;3.17;;;;;;;19.07;73.57;101160.97;5235765;28;20132;-78
2021/06/23 09:18:53;;;;;;;13.60;2.67;;;;;;;18.83;73.92;101152.69;5237307;28;20032;-78
2021/06/23 09:21:23;;;;;;;14.88;3.10;;;;;;;18.56;73.91;101157.91;5234761;28;20482;-78
2021/06/23 09:23:58;;;;;;;16.05;3.38;;;;;;;18.68;75.96;101150.09;5237378;28;20025;-78
2021/06/23 09:26:37;;;;;;;13.52;2.85;;;;;;;19.05;73.42;101155.75;5233350;28;20029;-78
2021/06/23 09:29:13;;;;;;;15.75;3.35;;;;;;;18.82;73.33;101158.06;5233687;28;20319;-78
2021/06/23 09:31:54;;;;;;;15.15;3.20;;;;;;;19.07;74.84;101159.16;5236291;28;20275;-78
2021/06/23 09:34:26;;;;;;;12.40;2.80;;;;;;;19.49;72.29;101153.88;5230631;28;20044;-79
2021/06/23 09:36:57;;;;;;;15.45;3.10;;;;;;;19.27;74.65;101153.50;5240639;28;20028;-79
2021/06/23 09:39:30;;;;;;;13.70;3.20;;;;;;;19.39;71.96;101160.69;5239772;28;20032;-79
2021/06/23 09:42:00;;;;;;;11.27;2.80;;;;;;;19.83;73.57;101164.06;5236822;28;20029;-79
2021/06/23 09:44:30;;;;;;;15.65;2.90;;;;;;;19.44;73.59;101160.41;5246553;28;20051;-78
2021/06/23 09:47:05;;;;;;;14.60;2.92;;;;;;;20.15;69.99;101162.00;5244567;28;20016;-79
2021/06/23 09:49:42;;;;;;;13.93;3.10;;;;;;;20.09;69.78;101165.06;5245039;28;20025;-79
2021/06/23 09:52:13;;;;;;;15.70;3.15;;;;;;;20.59;68.28;101158.09;5241083;28;20055;-79
2021/06/23 09:54:49;;;;;;;11.80;2.90;;;;;;;20.51;68.50;101165.69;5240461;28;20273;-79
2021/06/23 09:57:20;;;;;;;14.45;3.08;;;;;;;20.24;72.09;101166.69;5242625;28;20059;-79
2021/06/23 09:59:54;;;;;;;12.23;2.95;;;;;;;20.56;70.01;101160.97;5241692;28;20609;-79
2021/06/23 10:02:34;;;;;;;12.38;3.13;;;;;;;21.53;70.66;101159.41;5241561;28;20028;-79
2021/06/23 10:05:24;;;;;;;15.82;2.85;;;;;;;22.03;68.96;101153.09;5239858;28;20082;-79
2021/06/23 10:07:54;;;;;;;11.88;2.83;;;;;;;22.96;64.65;101141.47;5243838;28;20049;-79
2021/06/23 10:10:42;;;;;;;15.93;2.88;;;;;;;22.98;63.08;101136.91;5236412;28;20021;-79
2021/06/23 10:13:13;;;;;;;11.68;3.30;;;;;;;22.02;63.80;101148.75;5239850;28;20051;-79
2021/06/23 10:15:46;;;;;;;14.15;3.00;;;;;;;22.44;65.62;101140.28;5244099;28;20033;-79
2021/06/23 10:18:20;;;;;;;13.50;3.05;;;;;;;22.33;64.41;101148.16;5243668;28;20028;-79
2021/06/23 10:20:53;;;;;;;10.40;3.05;;;;;;;22.22;64.26;101145.47;5243427;28;20028;-79
2021/06/23 10:23:24;;;;;;;12.60;3.10;;;;;;;21.70;66.40;101147.56;5239615;28;20194;-79
2021/06/23 10:25:55;;;;;;;13.38;2.80;;;;;;;22.40;64.20;101149.47;5242565;28;20386;-79
2021/06/23 10:28:26;;;;;;;11.68;2.90;;;;;;;22.24;65.43;101140.88;5244183;28;20032;-79
2021/06/23 10:30:58;;;;;;;11.80;3.10;;;;;;;22.35;64.79;101151.56;5238231;28;20066;-79
2021/06/23 10:33:37;;;;;;;12.80;3.50;;;;;;;22.83;63.09;101146.91;5233287;28;20112;-79
2021/06/23 10:36:07;;;;;;;11.25;3.00;;;;;;;22.81;63.57;101145.34;5237302;28;20034;-79
2021/06/23 10:38:39;;;;;;;16.33;3.67;;;;;;;21.34;65.96;101156.34;5230803;28;20029;-79
2021/06/23 10:41:10;;;;;;;10.40;3.38;;;;;;;20.96;68.82;101152.00;5232075;28;20120;-79
2021/06/23 10:43:43;;;;;;;12.38;3.53;;;;;;;20.87;68.69;101155.31;5231491;28;20033;-79
2021/06/23 10:46:37;;;;;;;13.40;3.17;;;;;;;21.42;66.30;101151.31;5231079;28;20103;-78
2021/06/23 10:49:07;;;;;;;12.75;3.38;;;;;;;21.45;65.75;101155.59;5228572;28;20277;-79
2021/06/23 10:51:40;;;;;;;14.57;3.20;;;;;;;21.53;67.25;101155.88;5231194;28;20025;-79
2021/06/23 10:54:29;;;;;;;14.35;3.95;;;;;;;21.60;68.99;101152.66;5235724;28;20131;-79
2021/06/23 10:56:59;;;;;;;13.73;3.30;;;;;;;21.60;66.63;101157.16;5232380;28;20016;-79
2021/06/23 10:59:34;;;;;;;15.73;3.60;;;;;;;21.63;67.48;101159.63;5242114;28;20070;-79
2021/06/23 11:02:10;;;;;;;12.30;3.67;;;;;;;21.63;69.23;101168.47;5240040;28;20104;-79
2021/06/23 11:05:01;;;;;;;17.42;3.50;;;;;;;21.70;69.97;101160.88;5241675;28;20535;-79
2021/06/23 11:07:55;;;;;;;12.85;3.13;;;;;;;21.64;70.83;101169.31;5223532;28;20041;-79
2021/06/23 11:10:34;;;;;;;16.15;3.67;;;;;;;21.23;73.18;101174.03;5231625;28;20029;-79
2021/06/23 11:13:08;;;;;;;14.32;3.70;;;;;;;21.38;68.15;101179.09;5239140;28;20024;-79
2021/06/23 11:15:40;;;;;;;14.07;4.00;;;;;;;21.87;69.37;101173.81;5241627;28;21024;-79
2021/06/23 11:18:16;;;;;;;14.32;3.30;;;;;;;21.65;67.69;101181.66;5237603;28;20111;-79
2021/06/23 11:20:53;;;;;;;15.40;4.50;;;;;;;20.73;69.95;101179.28;5238335;28;20555;-79
2021/06/23 11:23:51;;;;;;;14.07;3.97;;;;;;;20.66;69.63;101182.44;5235951;28;20028;-79
2021/06/23 11:26:21;;;;;;;14.82;3.75;;;;;;;21.38;66.73;101178.28;5229992;28;20035;-79
2021/06/23 11:29:18;;;;;;;14.27;3.93;;;;;;;21.34;68.73;101182.06;5236786;28;20103;-79
2021/06/23 11:31:50;;;;;;;10.30;3.35;;;;;;;21.45;68.08;101169.75;5236634;28;20278;-79
2021/06/23 11:34:35;;;;;;;16.58;3.83;;;;;;;21.79;67.99;101174.41;5233454;28;20130;-79
2021/06/23 11:37:08;;;;;;;13.40;3.75;;;;;;;21.99;66.30;101167.59;5233732;28;20029;-78
2021/06/23 11:39:41;;;;;;;12.13;3.70;;;;;;;21.78;69.13;101169.16;5230017;28;20930;-79
2021/06/23 11:42:12;;;;;;;13.93;3.67;;;;;;;21.84;70.49;101166.91;5232657;28;20029;-77
2021/06/23 11:44:43;;;;;;;14.10;3.72;;;;;;;21.59;72.48;101179.41;5239900;28;20024;-78
2021/06/23 11:47:13;;;;;;;13.60;3.47;;;;;;;21.59;74.14;101176.75;5241231;28;20021;-79
2021/06/23 11:49:44;;;;;;;15.63;3.80;;;;;;;21.55;72.40;101180.59;5244223;28;20477;-79
2021/06/23 11:52:14;;;;;;;15.25;3.35;;;;;;;21.71;72.04;101181.22;5234879;28;20033;-77
2021/06/23 11:54:45;;;;;;;12.40;3.90;;;;;;;21.51;70.42;101173.75;5240384;28;20509;-79
2021/06/23 11:57:15;;;;;;;13.27;3.42;;;;;;;21.73;69.93;101174.00;5235661;28;20474;-78
2021/06/23 11:59:48;;;;;;;14.88;3.95;;;;;;;21.90;70.46;101165.63;5236558;28;20036;-80
2021/06/23 12:02:18;;;;;;;16.58;4.30;;;;;;;21.75;69.20;101172.91;5236692;28;20074;-80